Time;durP1;ratioP1;P1;durP2;ratioP2;P2;SDS_P1;SDS_P2;PMS_P1;PMS_P2;Temp;Humidity;BMP_temperature;BMP_pressure;BME280_temperature;BME280_humidity;BME280_pressure;Samples;Min_cycle;Max_cycle;Signal;HPM_P1;HPM_P2
2024/03/13 00:01:07;;;;;;;35.97;17.43;;;3.30;99.90;;;;;;5106233;28;20272;-82
2024/03/13 00:03:34;;;;;;;35.03;17.33;;;3.50;99.90;;;;;;5105816;28;20216;-82
2024/03/13 00:06:01;;;;;;;37.37;18.93;;;3.60;99.90;;;;;;5109800;28;20233;-81
2024/03/13 00:08:29;;;;;;;35.97;16.40;;;3.60;99.90;;;;;;5109185;28;20198;-82
2024/03/13 00:10:56;;;;;;;34.27;17.27;;;3.30;99.90;;;;;;5103288;28;20233;-81
2024/03/13 00:13:23;;;;;;;31.60;15.90;;;3.10;99.90;;;;;;5113194;28;20713;-81
2024/03/13 00:15:50;;;;;;;27.23;14.47;;;3.00;99.90;;;;;;5097015;28;20623;-82
2024/03/13 00:18:17;;;;;;;32.07;15.37;;;2.90;99.90;;;;;;5105401;28;20246;-82
2024/03/13 00:20:44;;;;;;;32.60;14.03;;;3.00;99.90;;;;;;5113245;28;20221;-82
2024/03/13 00:23:11;;;;;;;35.50;16.60;;;3.00;99.90;;;;;;5108110;28;20698;-81
2024/03/13 00:25:43;;;;;;;29.50;14.87;;;3.00;99.90;;;;;;5098053;28;20201;-81
2024/03/13 00:28:10;;;;;;;31.87;15.73;;;3.00;99.90;;;;;;5099585;28;20243;-82
2024/03/13 00:30:37;;;;;;;31.67;15.30;;;2.80;99.90;;;;;;5103440;28;20699;-81
2024/03/13 00:33:04;;;;;;;35.60;16.50;;;2.70;99.90;;;;;;5113976;28;20193;-81
2024/03/13 00:35:31;;;;;;;30.13;14.87;;;2.80;99.90;;;;;;5103701;28;20668;-81
2024/03/13 00:37:59;;;;;;;33.07;14.67;;;2.90;99.90;;;;;;5106286;28;20201;-81
2024/03/13 00:40:26;;;;;;;33.07;15.73;;;2.80;99.90;;;;;;5103344;28;20217;-81
2024/03/13 00:42:54;;;;;;;28.50;14.17;;;2.90;99.90;;;;;;5100115;28;20247;-81
2024/03/13 00:45:21;;;;;;;31.90;15.33;;;2.90;99.90;;;;;;5107213;28;20216;-82
2024/03/13 00:47:48;;;;;;;33.43;15.77;;;3.00;99.90;;;;;;5098612;28;20208;-82
2024/03/13 00:50:16;;;;;;;32.23;15.30;;;3.10;99.90;;;;;;5103607;28;20225;-82
2024/03/13 00:52:43;;;;;;;31.87;14.87;;;2.90;99.90;;;;;;5102209;28;20194;-83
2024/03/13 00:55:11;;;;;;;32.60;15.63;;;2.90;99.90;;;;;;5103711;28;20232;-82
2024/03/13 00:57:41;;;;;;;31.73;15.77;;;2.90;99.90;;;;;;5105596;28;20233;-82
2024/03/13 01:00:11;;;;;;;30.83;14.57;;;2.90;99.90;;;;;;5101179;28;20371;-83
2024/03/13 01:02:40;;;;;;;35.17;16.37;;;2.80;99.90;;;;;;5104907;28;20279;-82
2024/03/13 01:05:08;;;;;;;36.57;16.77;;;2.70;99.90;;;;;;5101648;28;20202;-83
2024/03/13 01:07:34;;;;;;;31.17;15.00;;;2.80;99.90;;;;;;5108458;28;20208;-83
2024/03/13 01:10:03;;;;;;;32.97;15.33;;;2.70;99.90;;;;;;5108554;28;20254;-82
2024/03/13 01:12:30;;;;;;;30.83;14.00;;;2.70;99.90;;;;;;5106670;28;20262;-83
2024/03/13 01:14:57;;;;;;;32.00;15.27;;;2.70;99.90;;;;;;5107932;28;20273;-82
2024/03/13 01:17:25;;;;;;;33.90;16.43;;;2.70;99.90;;;;;;5104233;28;20277;-82
2024/03/13 01:19:52;;;;;;;32.07;15.23;;;2.70;99.90;;;;;;5107489;28;20227;-82
2024/03/13 01:22:22;;;;;;;33.57;16.43;;;2.60;99.90;;;;;;5100923;28;20262;-82
2024/03/13 01:24:49;;;;;;;34.80;15.53;;;2.60;99.90;;;;;;5112587;28;20618;-83
2024/03/13 01:27:16;;;;;;;31.37;14.73;;;2.60;99.90;;;;;;5106997;28;20240;-83
2024/03/13 01:29:46;;;;;;;36.13;16.47;;;2.60;99.90;;;;;;5112686;28;20617;-82
2024/03/13 01:32:14;;;;;;;32.67;15.17;;;2.70;99.90;;;;;;5113636;28;20303;-82
2024/03/13 01:34:42;;;;;;;33.43;16.43;;;2.70;99.90;;;;;;5113274;28;20645;-82
2024/03/13 01:39:53;;;;;;;32.93;15.50;;;2.60;99.90;;;;;;5110449;28;20199;-82
2024/03/13 01:56:22;;;;;;;31.23;14.50;;;2.60;99.90;;;;;;5106668;28;20706;-82
2024/03/13 01:58:51;;;;;;;33.70;16.13;;;2.70;99.90;;;;;;5106167;28;20716;-83
2024/03/13 02:04:03;;;;;;;32.40;15.63;;;2.60;99.90;;;;;;5105399;28;20648;-82
2024/03/13 02:06:32;;;;;;;31.20;14.77;;;2.60;99.90;;;;;;5101531;28;20197;-83
2024/03/13 02:09:00;;;;;;;29.07;13.73;;;2.70;99.90;;;;;;5107138;28;20269;-82
2024/03/13 02:11:26;;;;;;;30.97;14.10;;;2.30;99.90;;;;;;5104099;28;20261;-82
2024/03/13 02:13:55;;;;;;;30.30;14.27;;;2.10;99.90;;;;;;5104680;28;20220;-82
2024/03/13 02:16:22;;;;;;;32.93;15.07;;;2.10;99.90;;;;;;5096377;28;20201;-82
2024/03/13 02:18:50;;;;;;;29.47;13.67;;;2.10;99.90;;;;;;5104279;28;20248;-82
2024/03/13 02:21:18;;;;;;;30.67;13.33;;;2.20;99.90;;;;;;5104818;28;20221;-82
2024/03/13 02:23:45;;;;;;;30.53;13.83;;;2.10;99.90;;;;;;5112046;28;20677;-82
2024/03/13 02:26:12;;;;;;;31.00;14.40;;;2.10;99.90;;;;;;5091843;28;20710;-82
2024/03/13 02:28:39;;;;;;;30.90;14.53;;;2.20;99.90;;;;;;5103516;28;20647;-82
2024/03/13 02:31:07;;;;;;;33.93;16.03;;;2.20;99.90;;;;;;5087469;28;20276;-82
2024/03/13 02:33:34;;;;;;;31.83;14.90;;;2.20;99.90;;;;;;5094056;28;20675;-82
2024/03/13 02:36:01;;;;;;;32.03;14.50;;;2.20;99.90;;;;;;5093403;28;20648;-81
2024/03/13 02:38:28;;;;;;;34.30;15.63;;;2.20;99.90;;;;;;5092089;28;20223;-81
2024/03/13 02:40:55;;;;;;;33.13;16.37;;;2.20;99.90;;;;;;5091040;28;20225;-81
2024/03/13 02:43:22;;;;;;;33.00;15.23;;;2.30;99.90;;;;;;5089314;28;20300;-81
2024/03/13 02:45:49;;;;;;;32.17;16.57;;;2.40;99.90;;;;;;5095371;28;20212;-81
2024/03/13 02:48:16;;;;;;;33.50;15.40;;;2.40;99.90;;;;;;5093902;28;20225;-82
2024/03/13 02:50:44;;;;;;;34.03;15.70;;;2.50;99.90;;;;;;5082538;28;20225;-81
2024/03/13 02:53:11;;;;;;;32.87;15.77;;;2.50;99.90;;;;;;5083917;28;20202;-81
2024/03/13 02:55:38;;;;;;;34.33;15.93;;;2.40;99.90;;;;;;5098384;28;20283;-81
2024/03/13 02:58:06;;;;;;;32.93;15.90;;;2.50;99.90;;;;;;5095269;28;20197;-81
2024/03/13 03:00:33;;;;;;;32.40;15.10;;;2.60;99.90;;;;;;5085842;28;20225;-81
2024/03/13 03:03:01;;;;;;;32.40;15.83;;;2.60;99.90;;;;;;5093222;28;20257;-81
2024/03/13 03:05:28;;;;;;;33.87;15.97;;;2.60;99.90;;;;;;5092829;28;20201;-81
2024/03/13 03:07:55;;;;;;;32.27;15.83;;;2.50;99.90;;;;;;5091370;28;20201;-81
2024/03/13 03:10:22;;;;;;;33.83;15.83;;;2.60;99.90;;;;;;5088838;28;20225;-80
2024/03/13 03:12:49;;;;;;;34.00;16.20;;;2.80;99.90;;;;;;5104140;28;20224;-81
2024/03/13 03:15:18;;;;;;;34.43;16.13;;;2.80;99.90;;;;;;5089221;28;20239;-80
2024/03/13 03:17:45;;;;;;;38.53;17.13;;;3.10;99.90;;;;;;5091444;28;20211;-81
2024/03/13 03:20:13;;;;;;;38.07;16.43;;;3.20;99.90;;;;;;5091602;28;20547;-81
2024/03/13 03:22:39;;;;;;;38.53;17.70;;;3.00;99.90;;;;;;5104267;28;20201;-81
2024/03/13 03:25:09;;;;;;;35.60;17.93;;;3.20;99.90;;;;;;5090117;28;20260;-81
2024/03/13 03:27:36;;;;;;;41.03;19.10;;;3.20;99.90;;;;;;5091987;28;20230;-81
2024/03/13 03:30:06;;;;;;;36.80;18.00;;;3.60;99.90;;;;;;5087781;28;20282;-81
2024/03/13 03:32:33;;;;;;;36.30;17.47;;;3.40;99.90;;;;;;5093187;28;20198;-81
2024/03/13 03:34:59;;;;;;;40.17;19.10;;;3.40;99.90;;;;;;5089053;28;20198;-82
2024/03/13 03:37:26;;;;;;;35.47;16.87;;;3.50;99.90;;;;;;5093956;28;20618;-82
2024/03/13 03:39:53;;;;;;;37.57;18.03;;;3.40;99.90;;;;;;5088129;28;20268;-81
2024/03/13 03:42:20;;;;;;;33.47;17.03;;;3.10;99.90;;;;;;5085960;28;20271;-81
2024/03/13 03:44:47;;;;;;;33.60;17.60;;;3.10;99.90;;;;;;5089121;28;20699;-81
2024/03/13 03:47:15;;;;;;;36.07;17.43;;;3.20;99.90;;;;;;5087508;28;20309;-80
2024/03/13 03:49:42;;;;;;;33.40;16.20;;;2.90;99.90;;;;;;5081996;28;20232;-81
2024/03/13 03:52:09;;;;;;;34.53;16.43;;;2.90;99.90;;;;;;5082595;28;20308;-81
2024/03/13 03:54:36;;;;;;;34.20;17.27;;;2.90;99.90;;;;;;5082193;28;20232;-81
2024/03/13 03:57:03;;;;;;;34.77;15.37;;;2.80;99.90;;;;;;5087719;28;20193;-81
2024/03/13 03:59:30;;;;;;;32.83;16.17;;;2.80;99.90;;;;;;5086560;28;20213;-81
2024/03/13 04:01:57;;;;;;;33.27;15.70;;;2.80;99.90;;;;;;5082693;28;20282;-81
2024/03/13 04:04:25;;;;;;;37.23;16.80;;;2.90;99.90;;;;;;5092638;28;20209;-81
2024/03/13 04:06:52;;;;;;;39.53;19.63;;;3.00;99.90;;;;;;5089124;28;20204;-81
2024/03/13 04:09:20;;;;;;;35.07;17.17;;;3.10;99.90;;;;;;5094769;28;20643;-79
2024/03/13 04:11:47;;;;;;;35.70;17.13;;;3.10;99.90;;;;;;5107838;28;20698;-81
2024/03/13 04:14:14;;;;;;;37.63;17.33;;;3.00;99.90;;;;;;5108563;28;20247;-80
2024/03/13 04:16:43;;;;;;;35.53;18.23;;;3.10;99.90;;;;;;5090140;28;20193;-80
2024/03/13 04:19:10;;;;;;;36.63;18.33;;;3.20;99.90;;;;;;5089645;28;20652;-80
2024/03/13 04:21:38;;;;;;;39.33;18.90;;;3.20;99.90;;;;;;5093296;28;20695;-80
2024/03/13 04:24:07;;;;;;;38.63;19.00;;;3.40;99.90;;;;;;5092854;28;20258;-80
2024/03/13 04:26:37;;;;;;;39.13;17.97;;;3.30;99.90;;;;;;5091832;28;20194;-79
2024/03/13 04:29:04;;;;;;;35.80;17.03;;;3.40;99.90;;;;;;5090487;28;20198;-79
2024/03/13 04:31:33;;;;;;;33.93;17.17;;;3.20;99.90;;;;;;5091655;28;20284;-81
2024/03/13 04:34:00;;;;;;;41.00;17.80;;;3.20;99.90;;;;;;5094164;28;20253;-81
2024/03/13 04:36:27;;;;;;;37.97;17.67;;;3.10;99.90;;;;;;5094926;28;20197;-78
2024/03/13 04:38:54;;;;;;;39.53;20.20;;;2.90;99.90;;;;;;5094388;28;20229;-81
2024/03/13 04:41:22;;;;;;;39.90;18.93;;;3.50;99.90;;;;;;5096212;28;20626;-81
2024/03/13 04:43:49;;;;;;;38.17;17.77;;;3.50;99.90;;;;;;5099903;28;20256;-81
2024/03/13 04:46:16;;;;;;;37.17;17.33;;;3.50;99.90;;;;;;5096858;28;20228;-81
2024/03/13 04:48:44;;;;;;;40.07;18.83;;;3.60;99.90;;;;;;5095411;28;20211;-81
2024/03/13 04:51:11;;;;;;;40.13;18.97;;;3.60;99.90;;;;;;5088063;28;20225;-82
2024/03/13 04:53:38;;;;;;;38.97;19.07;;;3.80;99.90;;;;;;5094306;28;20201;-81
2024/03/13 04:56:06;;;;;;;41.27;18.97;;;3.90;99.90;;;;;;5089845;28;20250;-81
2024/03/13 04:58:34;;;;;;;38.93;18.30;;;4.00;99.90;;;;;;5093888;28;20292;-81
2024/03/13 05:01:03;;;;;;;43.90;19.87;;;4.10;99.90;;;;;;5089098;28;20221;-81
2024/03/13 05:03:30;;;;;;;43.07;18.30;;;4.00;99.90;;;;;;5094189;28;20236;-81
2024/03/13 05:05:57;;;;;;;37.83;18.70;;;3.90;99.90;;;;;;5094944;28;20239;-81
2024/03/13 05:08:24;;;;;;;37.00;17.37;;;4.00;99.90;;;;;;5090403;28;20201;-81
2024/03/13 05:10:51;;;;;;;35.53;17.03;;;3.80;99.90;;;;;;5092108;28;20220;-82
2024/03/13 05:13:18;;;;;;;37.67;17.10;;;3.70;99.90;;;;;;5091741;28;20285;-82
2024/03/13 05:15:45;;;;;;;39.07;19.30;;;3.90;99.90;;;;;;5097310;28;20259;-81
2024/03/13 05:18:13;;;;;;;41.33;18.70;;;4.20;99.90;;;;;;5087141;28;20628;-81
2024/03/13 05:20:40;;;;;;;36.30;16.87;;;4.10;99.90;;;;;;5090775;28;20217;-81
2024/03/13 05:23:08;;;;;;;42.43;21.07;;;4.10;99.90;;;;;;5088263;28;20258;-81
2024/03/13 05:25:36;;;;;;;38.47;18.20;;;4.40;99.90;;;;;;5094887;28;20572;-81
2024/03/13 05:28:03;;;;;;;40.57;19.97;;;4.30;99.90;;;;;;5086036;28;20198;-81
2024/03/13 05:30:30;;;;;;;40.60;18.50;;;4.30;99.90;;;;;;5093206;28;20241;-82
2024/03/13 05:32:57;;;;;;;37.03;17.07;;;4.30;99.90;;;;;;5091454;28;20280;-82
2024/03/13 05:35:24;;;;;;;35.87;18.10;;;4.40;99.90;;;;;;5089937;28;20721;-81
2024/03/13 05:37:51;;;;;;;33.83;16.17;;;4.40;99.90;;;;;;5086860;28;20198;-81
2024/03/13 05:40:19;;;;;;;37.57;18.30;;;4.20;99.90;;;;;;5108244;28;20254;-81
2024/03/13 05:42:46;;;;;;;33.87;16.87;;;4.00;99.90;;;;;;5086483;28;20197;-81
2024/03/13 05:45:14;;;;;;;36.60;16.80;;;3.90;99.90;;;;;;5079787;28;20646;-80
2024/03/13 05:47:41;;;;;;;35.53;18.27;;;3.80;99.90;;;;;;5104960;28;20233;-81
2024/03/13 05:50:09;;;;;;;35.20;17.17;;;3.80;99.90;;;;;;5085043;28;20281;-81
2024/03/13 05:52:36;;;;;;;35.23;15.73;;;3.90;99.90;;;;;;5085387;28;20552;-81
2024/03/13 05:55:04;;;;;;;35.87;16.23;;;4.00;99.90;;;;;;5104749;28;20193;-81
2024/03/13 05:57:31;;;;;;;33.97;16.43;;;4.30;99.90;;;;;;5085889;28;20202;-81
2024/03/13 05:59:58;;;;;;;33.20;15.63;;;3.90;99.90;;;;;;5088294;28;20635;-81
2024/03/13 06:02:25;;;;;;;32.97;15.93;;;3.90;99.90;;;;;;5088386;28;20225;-82
2024/03/13 06:05:02;;;;;;;30.30;14.90;;;4.10;99.90;;;;;;5083267;28;20675;-81
2024/03/13 06:07:29;;;;;;;34.83;16.10;;;4.00;99.90;;;;;;5092332;28;20194;-82
2024/03/13 06:09:56;;;;;;;32.67;15.73;;;4.10;99.90;;;;;;5084666;28;20197;-81
2024/03/13 06:12:23;;;;;;;30.23;15.23;;;4.20;99.90;;;;;;5087500;28;20224;-81
2024/03/13 06:14:52;;;;;;;32.30;16.17;;;4.40;99.90;;;;;;5086244;28;20554;-81
2024/03/13 06:17:19;;;;;;;32.03;15.70;;;4.40;99.90;;;;;;5092051;28;20240;-81
2024/03/13 06:19:46;;;;;;;32.53;16.20;;;4.50;99.90;;;;;;5088145;28;20668;-81
2024/03/13 06:22:14;;;;;;;30.00;13.63;;;4.80;99.90;;;;;;5090875;28;20217;-81
2024/03/13 06:24:41;;;;;;;31.27;16.47;;;5.00;99.90;;;;;;5088396;28;20303;-81
2024/03/13 06:27:15;;;;;;;29.13;14.80;;;5.10;99.90;;;;;;5090769;28;20197;-81
2024/03/13 06:29:57;;;;;;;26.97;13.63;;;5.20;99.90;;;;;;5089692;28;20648;-81
2024/03/13 06:32:24;;;;;;;29.00;13.40;;;5.40;99.90;;;;;;5094283;28;20312;-82
2024/03/13 06:34:52;;;;;;;28.50;13.30;;;5.50;99.90;;;;;;5090051;28;20283;-81
2024/03/13 06:37:19;;;;;;;25.80;13.10;;;5.50;99.90;;;;;;5090756;28;20281;-81
2024/03/13 06:39:46;;;;;;;25.93;13.43;;;5.60;99.90;;;;;;5095154;28;20636;-81
2024/03/13 06:42:13;;;;;;;28.53;13.53;;;5.70;99.90;;;;;;5092313;28;20594;-81
2024/03/13 06:44:40;;;;;;;28.40;12.97;;;5.70;99.90;;;;;;5094032;28;20226;-81
2024/03/13 06:47:07;;;;;;;28.30;12.70;;;5.90;99.90;;;;;;5087464;28;20258;-81
2024/03/13 06:49:35;;;;;;;26.90;13.37;;;6.10;99.90;;;;;;5087024;28;20198;-81
2024/03/13 06:52:03;;;;;;;23.93;12.60;;;6.20;99.90;;;;;;5094250;28;20213;-81
2024/03/13 06:54:30;;;;;;;22.60;12.30;;;6.10;99.90;;;;;;5080457;28;20189;-81
2024/03/13 06:56:57;;;;;;;24.20;11.30;;;6.50;99.90;;;;;;5087448;28;20622;-81
2024/03/13 06:59:24;;;;;;;27.83;12.90;;;6.50;99.90;;;;;;5088463;28;20194;-82
2024/03/13 07:01:52;;;;;;;25.43;12.33;;;6.50;99.90;;;;;;5091613;28;20241;-81
2024/03/13 07:04:19;;;;;;;25.43;11.37;;;6.70;1.00;;;;;;5085688;28;20224;-81
2024/03/13 07:06:46;;;;;;;25.67;11.97;;;6.80;1.00;;;;;;5091054;28;20661;-81
2024/03/13 07:09:13;;;;;;;25.37;11.83;;;6.90;1.00;;;;;;5087926;28;20597;-81
2024/03/13 07:11:40;;;;;;;21.03;10.20;;;7.20;99.90;;;;;;5081755;28;20232;-81
2024/03/13 07:14:11;;;;;;;23.17;11.30;;;7.40;1.00;;;;;;5085278;28;20280;-81
2024/03/13 07:16:39;;;;;;;22.00;11.70;;;7.20;99.90;;;;;;5091114;28;20206;-81
2024/03/13 07:19:07;;;;;;;21.87;12.33;;;7.50;1.00;;;;;;5087035;28;20197;-81
2024/03/13 07:21:35;;;;;;;21.70;11.30;;;7.40;1.00;;;;;;5091674;28;20228;-81
2024/03/13 07:24:03;;;;;;;20.40;10.97;;;7.30;1.00;;;;;;5085887;28;20217;-81
2024/03/13 07:26:31;;;;;;;18.73;9.80;;;7.80;1.00;;;;;;5091509;28;20220;-81
2024/03/13 07:28:58;;;;;;;20.20;9.80;;;8.60;1.00;;;;;;5084225;28;20659;-81
2024/03/13 07:31:26;;;;;;;18.73;9.73;;;9.10;99.90;;;;;;5103006;28;20677;-81
2024/03/13 07:33:53;;;;;;;16.73;9.63;;;9.40;1.00;;;;;;5086715;28;20212;-81
2024/03/13 07:36:21;;;;;;;20.13;11.00;;;9.40;1.00;;;;;;5090696;28;20249;-81
2024/03/13 07:38:48;;;;;;;18.43;9.50;;;9.40;99.90;;;;;;5087892;28;20714;-81
2024/03/13 07:41:15;;;;;;;16.63;8.80;;;9.50;1.00;;;;;;5103915;28;20251;-81
2024/03/13 07:43:42;;;;;;;19.00;9.70;;;9.90;1.00;;;;;;5091464;28;20605;-81
2024/03/13 07:46:10;;;;;;;16.00;8.37;;;10.90;1.00;;;;;;5100788;28;20213;-81
2024/03/13 07:48:37;;;;;;;16.00;8.30;;;11.40;99.90;;;;;;5107137;28;20219;-81
2024/03/13 07:51:06;;;;;;;15.40;8.07;;;13.00;1.00;;;;;;5094707;28;20217;-82
2024/03/13 07:53:33;;;;;;;15.60;8.33;;;12.40;1.00;;;;;;5091195;28;20204;-82
2024/03/13 07:56:00;;;;;;;14.93;7.80;;;12.60;99.90;;;;;;5098147;28;20200;-81
2024/03/13 07:58:27;;;;;;;14.50;7.93;;;11.80;99.90;;;;;;5088076;28;20247;-81
2024/03/13 08:00:54;;;;;;;14.20;7.87;;;10.60;99.90;;;;;;5089743;28;20256;-81
2024/03/13 08:03:21;;;;;;;15.30;8.00;;;11.50;95.10;;;;;;5094132;28;20545;-81
2024/03/13 08:05:48;;;;;;;13.43;7.47;;;10.60;1.00;;;;;;5087539;28;20248;-81
2024/03/13 08:08:15;;;;;;;16.10;8.23;;;10.70;17.70;;;;;;5091759;28;20193;-81
2024/03/13 08:10:42;;;;;;;16.37;8.37;;;11.10;1.00;;;;;;5090555;28;20486;-82
2024/03/13 08:13:10;;;;;;;15.13;8.03;;;12.90;1.00;;;;;;5087336;28;20201;-82
2024/03/13 08:15:37;;;;;;;16.07;8.33;;;12.10;1.00;;;;;;5095952;28;20208;-82
2024/03/13 08:18:09;;;;;;;13.77;7.87;;;11.10;1.00;;;;;;5090922;28;20717;-82
2024/03/13 08:20:36;;;;;;;15.40;7.70;;;12.30;1.00;;;;;;5094385;28;20240;-82
2024/03/13 08:23:04;;;;;;;14.03;7.90;;;12.10;1.00;;;;;;5091728;28;20577;-81
2024/03/13 08:25:31;;;;;;;13.63;8.17;;;11.70;1.00;;;;;;5095007;28;20209;-81
2024/03/13 08:27:58;;;;;;;14.50;8.10;;;11.80;1.00;;;;;;5091868;28;20205;-81
2024/03/13 08:30:26;;;;;;;14.07;7.60;;;11.60;1.00;;;;;;5094136;28;20264;-81
2024/03/13 08:32:53;;;;;;;12.80;6.73;;;11.90;1.00;;;;;;5094958;28;20197;-82
2024/03/13 08:35:21;;;;;;;11.17;7.07;;;12.00;1.00;;;;;;5106639;28;20300;-81
2024/03/13 08:37:48;;;;;;;13.60;7.53;;;11.80;1.00;;;;;;5095084;28;20205;-81
2024/03/13 08:40:16;;;;;;;13.37;7.50;;;11.20;1.00;;;;;;5097424;28;20277;-82
2024/03/13 08:42:45;;;;;;;12.50;6.93;;;10.90;1.00;;;;;;5094178;28;20210;-81
2024/03/13 08:45:13;;;;;;;13.17;7.23;;;10.70;1.00;;;;;;5104697;28;20225;-82
2024/03/13 08:47:40;;;;;;;13.67;7.00;;;10.70;1.00;;;;;;5108996;28;20213;-82
2024/03/13 08:50:07;;;;;;;15.97;8.33;;;10.50;1.00;;;;;;5096642;28;20640;-82
2024/03/13 08:52:35;;;;;;;12.23;6.60;;;10.90;1.00;;;;;;5094015;28;20201;-82
2024/03/13 08:55:04;;;;;;;12.60;7.30;;;11.10;1.00;;;;;;5092881;28;20669;-82
2024/03/13 08:57:31;;;;;;;14.43;7.77;;;11.50;1.00;;;;;;5090045;28;20201;-82
2024/03/13 08:59:58;;;;;;;14.40;7.37;;;11.60;1.00;;;;;;5098274;28;20678;-81
2024/03/13 09:02:26;;;;;;;12.30;7.60;;;11.40;1.00;;;;;;5087013;28;20272;-81
2024/03/13 09:04:54;;;;;;;15.63;8.23;;;11.50;1.00;;;;;;5101954;28;20221;-81
2024/03/13 09:07:22;;;;;;;13.03;7.20;;;11.40;1.00;;;;;;5088763;28;20200;-82
2024/03/13 09:09:49;;;;;;;12.33;7.20;;;11.40;1.00;;;;;;5086139;28;20204;-81
2024/03/13 09:12:18;;;;;;;11.67;7.07;;;11.20;1.00;;;;;;5093426;28;20217;-81
2024/03/13 09:14:45;;;;;;;14.23;7.47;;;11.40;1.00;;;;;;5098505;28;20566;-81
2024/03/13 09:17:12;;;;;;;14.70;7.43;;;11.30;1.00;;;;;;5105724;28;20215;-82
2024/03/13 09:19:41;;;;;;;13.43;6.87;;;11.60;1.00;;;;;;5088846;28;20705;-82
2024/03/13 09:22:11;;;;;;;11.10;6.40;;;11.50;1.00;;;;;;5085078;28;20679;-82
2024/03/13 09:24:38;;;;;;;13.40;7.20;;;11.70;1.00;;;;;;5093138;28;20209;-81
2024/03/13 09:27:05;;;;;;;14.00;7.47;;;11.90;1.00;;;;;;5084982;28;20202;-81
2024/03/13 09:29:32;;;;;;;14.43;7.40;;;12.20;1.00;;;;;;5093468;28;20229;-82
2024/03/13 09:32:00;;;;;;;13.10;7.13;;;12.20;1.00;;;;;;5088404;28;20657;-82
2024/03/13 09:34:29;;;;;;;13.07;7.37;;;12.20;1.00;;;;;;5104440;28;20197;-82
2024/03/13 09:36:56;;;;;;;14.00;7.63;;;12.10;99.90;;;;;;5088876;28;20723;-82
2024/03/13 09:39:24;;;;;;;14.00;7.10;;;12.20;99.90;;;;;;5089041;28;20243;-81
2024/03/13 09:41:53;;;;;;;15.13;7.67;;;12.00;99.90;;;;;;5088468;28;20253;-82
2024/03/13 09:44:20;;;;;;;12.70;6.93;;;12.10;99.90;;;;;;5089278;28;20209;-82
2024/03/13 09:46:47;;;;;;;11.83;6.33;;;12.00;99.90;;;;;;5091690;28;20198;-82
2024/03/13 09:49:14;;;;;;;16.07;7.90;;;11.60;99.90;;;;;;5102972;28;20673;-82
2024/03/13 09:51:43;;;;;;;12.47;7.40;;;11.50;1.00;;;;;;5094934;28;20216;-82
2024/03/13 09:54:11;;;;;;;14.30;7.83;;;11.40;1.00;;;;;;5087430;28;20270;-82
2024/03/13 09:56:39;;;;;;;12.73;8.00;;;11.40;1.00;;;;;;5093605;28;20201;-82
2024/03/13 09:59:06;;;;;;;12.70;7.10;;;11.50;1.00;;;;;;5088813;28;20666;-82
2024/03/13 10:01:35;;;;;;;13.87;7.77;;;11.60;1.00;;;;;;5095802;28;20263;-82
2024/03/13 10:04:10;;;;;;;12.37;6.90;;;11.50;99.90;;;;;;5086743;28;20213;-82
2024/03/13 10:06:37;;;;;;;14.07;8.20;;;11.50;1.00;;;;;;5098456;28;20274;-82
2024/03/13 10:09:09;;;;;;;14.27;7.87;;;11.40;1.00;;;;;;5087801;28;20216;-82
2024/03/13 10:11:36;;;;;;;15.47;8.30;;;11.40;1.00;;;;;;5084422;28;20601;-81
2024/03/13 10:14:02;;;;;;;14.30;7.23;;;11.40;1.00;;;;;;5088092;28;20201;-81
2024/03/13 10:16:29;;;;;;;12.83;7.60;;;11.30;1.00;;;;;;5091417;28;20255;-82
2024/03/13 10:18:57;;;;;;;15.20;8.17;;;11.30;1.00;;;;;;5090242;28;20229;-78
2024/03/13 10:21:24;;;;;;;13.70;8.30;;;11.30;1.00;;;;;;5093254;28;20590;-78
2024/03/13 10:23:51;;;;;;;15.50;8.03;;;11.30;1.00;;;;;;5091941;28;20196;-78
2024/03/13 10:26:20;;;;;;;14.57;8.23;;;11.40;1.00;;;;;;5089606;28;20630;-78
2024/03/13 10:28:47;;;;;;;15.17;8.40;;;11.50;1.00;;;;;;5091680;28;20229;-79
2024/03/13 10:31:15;;;;;;;15.10;8.03;;;11.30;1.00;;;;;;5108871;28;20591;-78
2024/03/13 10:33:43;;;;;;;14.37;8.07;;;11.10;1.00;;;;;;5093807;28;20204;-78
2024/03/13 10:36:11;;;;;;;12.67;7.80;;;11.20;1.00;;;;;;5083873;28;20197;-78
2024/03/13 10:38:38;;;;;;;16.03;8.40;;;11.30;1.00;;;;;;5106050;28;20208;-78
2024/03/13 10:41:05;;;;;;;14.43;8.07;;;11.30;1.00;;;;;;5087838;28;20593;-78
2024/03/13 10:43:32;;;;;;;14.63;7.53;;;11.30;1.00;;;;;;5102763;28;20262;-78
2024/03/13 10:45:59;;;;;;;14.43;8.57;;;11.30;1.00;;;;;;5091258;28;20301;-78
2024/03/13 10:48:26;;;;;;;14.97;8.53;;;11.30;1.00;;;;;;5089745;28;20251;-78
2024/03/13 10:50:55;;;;;;;15.27;8.60;;;11.40;1.00;;;;;;5088679;28;20268;-78
2024/03/13 10:53:22;;;;;;;14.07;8.00;;;11.50;1.00;;;;;;5097632;28;20201;-79
2024/03/13 10:55:49;;;;;;;16.07;8.40;;;11.50;1.00;;;;;;5081849;28;20210;-79
2024/03/13 10:58:19;;;;;;;14.93;8.30;;;11.60;1.00;;;;;;5090135;28;20201;-78
2024/03/13 11:00:47;;;;;;;14.03;7.33;;;11.50;1.00;;;;;;5093632;28;20303;-79
2024/03/13 11:03:14;;;;;;;13.43;8.13;;;11.40;1.00;;;;;;5090968;28;20232;-78
2024/03/13 11:05:41;;;;;;;16.37;8.37;;;11.60;1.00;;;;;;5087623;28;20216;-78
2024/03/13 11:08:08;;;;;;;14.43;7.40;;;11.50;1.00;;;;;;5093082;28;20229;-78
2024/03/13 11:10:35;;;;;;;11.47;7.03;;;11.80;1.00;;;;;;5085213;28;20245;-78
2024/03/13 11:13:04;;;;;;;13.53;7.37;;;11.50;1.00;;;;;;5082897;28;20284;-78
2024/03/13 11:15:31;;;;;;;15.07;8.33;;;11.70;1.00;;;;;;5093226;28;20250;-78
2024/03/13 11:17:59;;;;;;;13.50;7.43;;;11.80;1.00;;;;;;5092491;28;20200;-78
2024/03/13 11:20:26;;;;;;;14.00;7.20;;;11.90;1.00;;;;;;5087178;28;20718;-78
2024/03/13 11:22:54;;;;;;;13.17;7.00;;;11.70;1.00;;;;;;5092849;28;20352;-78
2024/03/13 11:25:21;;;;;;;13.10;7.10;;;11.60;1.00;;;;;;5086026;28;20252;-78
2024/03/13 11:27:51;;;;;;;12.87;7.47;;;11.80;1.00;;;;;;5089837;28;20200;-78
2024/03/13 11:30:19;;;;;;;12.40;7.07;;;11.70;1.00;;;;;;5090398;28;20664;-78
2024/03/13 11:32:48;;;;;;;11.03;6.50;;;11.60;1.00;;;;;;5093485;28;20361;-78
2024/03/13 11:35:16;;;;;;;12.33;7.43;;;11.70;1.00;;;;;;5087198;28;20698;-77
2024/03/13 11:37:44;;;;;;;12.70;7.03;;;12.00;1.00;;;;;;5091208;28;20208;-78
2024/03/13 11:40:11;;;;;;;10.93;6.77;;;12.30;1.00;;;;;;5088084;28;20200;-78
2024/03/13 11:42:40;;;;;;;11.30;6.97;;;12.80;1.00;;;;;;5104370;28;20641;-78
2024/03/13 11:45:23;;;;;;;11.30;6.67;;;12.90;1.00;;;;;;5089866;28;20284;-78
2024/03/13 11:47:51;;;;;;;11.43;6.60;;;13.00;1.00;;;;;;5096340;28;20226;-78
2024/03/13 11:50:18;;;;;;;11.73;6.70;;;13.00;1.00;;;;;;5099074;28;20273;-78
2024/03/13 11:53:06;;;;;;;9.93;6.37;;;13.20;1.00;;;;;;5096192;28;20259;-79
2024/03/13 11:55:33;;;;;;;13.03;7.07;;;13.30;1.00;;;;;;5083067;28;20193;-78
2024/03/13 11:58:06;;;;;;;10.63;6.63;;;13.30;1.00;;;;;;5091321;28;20211;-78
2024/03/13 12:00:33;;;;;;;10.17;6.10;;;13.20;1.00;;;;;;5098479;28;20225;-79
2024/03/13 12:03:01;;;;;;;11.00;6.53;;;13.00;1.00;;;;;;5092149;28;20209;-78
2024/03/13 12:05:32;;;;;;;11.67;6.30;;;12.90;1.00;;;;;;5097674;28;20300;-79
2024/03/13 12:08:00;;;;;;;12.10;7.00;;;12.90;1.00;;;;;;5092151;28;20208;-78
2024/03/13 12:10:29;;;;;;;9.97;6.47;;;12.90;1.00;;;;;;5103491;28;20225;-78
2024/03/13 12:12:56;;;;;;;11.47;6.23;;;12.80;1.00;;;;;;5083091;28;20677;-78
2024/03/13 12:15:24;;;;;;;10.67;5.90;;;12.70;1.00;;;;;;5099513;28;20251;-78
2024/03/13 12:17:51;;;;;;;10.37;6.00;;;12.70;1.00;;;;;;5088284;28;20197;-78
2024/03/13 12:20:20;;;;;;;9.77;6.33;;;12.60;1.00;;;;;;5090487;28;20267;-79
2024/03/13 12:22:47;;;;;;;9.57;5.90;;;12.70;1.00;;;;;;5094831;28;20206;-79
2024/03/13 12:25:14;;;;;;;9.20;5.70;;;12.80;1.00;;;;;;5082827;28;20198;-79
2024/03/13 12:27:45;;;;;;;8.37;5.40;;;12.80;1.00;;;;;;5087904;28;20205;-78
2024/03/13 12:30:13;;;;;;;10.20;5.93;;;12.70;1.00;;;;;;5090486;28;20205;-81
2024/03/13 12:32:40;;;;;;;9.20;5.70;;;12.60;1.00;;;;;;5088942;28;20202;-79
2024/03/13 12:35:08;;;;;;;8.00;5.50;;;12.60;1.00;;;;;;5093443;28;20201;-79
2024/03/13 12:37:36;;;;;;;9.07;5.80;;;12.70;1.00;;;;;;5105199;28;20247;-79
2024/03/13 12:40:08;;;;;;;11.03;6.40;;;12.50;1.00;;;;;;5093363;28;20221;-79
2024/03/13 12:42:37;;;;;;;10.67;6.33;;;12.50;1.00;;;;;;5093440;28;20201;-79
2024/03/13 12:45:04;;;;;;;9.97;5.90;;;12.50;1.00;;;;;;5092093;28;20216;-79
2024/03/13 12:47:32;;;;;;;8.97;5.97;;;12.40;1.00;;;;;;5097447;28;20212;-79
2024/03/13 12:49:59;;;;;;;9.83;6.00;;;12.60;1.00;;;;;;5092769;28;20225;-79
2024/03/13 12:52:28;;;;;;;10.33;5.97;;;12.50;1.00;;;;;;5113864;28;20255;-79
2024/03/13 12:54:55;;;;;;;10.20;5.93;;;12.60;1.00;;;;;;5092148;28;20240;-79
2024/03/13 12:57:22;;;;;;;9.87;5.80;;;12.60;1.00;;;;;;5093653;28;20247;-78
2024/03/13 12:59:51;;;;;;;9.83;5.50;;;12.60;1.00;;;;;;5088130;28;20284;-79
2024/03/13 13:02:18;;;;;;;9.10;5.83;;;12.70;1.00;;;;;;5096803;28;20228;-79